createdAt,value
2018-04-12T00:00:54.255Z,29.37
2018-04-12T00:03:25.475Z,28.63
2018-04-12T00:05:56.707Z,28.57
2018-04-12T00:08:28.631Z,28.07
2018-04-12T00:11:00.001Z,28.53
2018-04-12T00:13:32.220Z,26.90
2018-04-12T00:16:03.470Z,26.57
2018-04-12T00:18:34.914Z,26.73
2018-04-12T00:21:06.095Z,28.13
2018-04-12T00:23:38.098Z,26.97
2018-04-12T00:26:10.141Z,27.43
2018-04-12T00:28:41.391Z,28.30
2018-04-12T00:31:12.626Z,29.03
2018-04-12T00:33:44.617Z,28.73
2018-04-12T00:36:15.946Z,26.67
2018-04-12T00:38:47.156Z,26.80
2018-04-12T00:41:18.396Z,26.93
2018-04-12T00:43:49.636Z,29.30
2018-04-12T00:46:20.850Z,28.80
2018-04-12T00:48:52.062Z,28.90
2018-04-12T00:51:24.038Z,28.53
2018-04-12T00:54:00.226Z,29.17
2018-04-12T00:56:31.652Z,27.50
2018-04-12T00:59:02.874Z,28.47
2018-04-12T01:01:34.806Z,28.67
2018-04-12T01:04:06.057Z,28.97
2018-04-12T01:06:37.239Z,28.13
2018-04-12T01:09:08.458Z,29.17
2018-04-12T01:11:40.528Z,28.60
2018-04-12T01:14:12.524Z,28.07
2018-04-12T01:16:43.765Z,28.63
2018-04-12T01:19:15.079Z,28.80
2018-04-12T01:21:47.018Z,28.50
2018-04-12T01:24:18.221Z,28.47
2018-04-12T01:26:49.461Z,28.13
2018-04-12T01:29:20.705Z,29.20
2018-04-12T01:31:51.919Z,28.23
2018-04-12T01:34:24.111Z,28.77
2018-04-12T01:36:55.377Z,27.93
2018-04-12T01:39:26.621Z,30.10
2018-04-12T01:41:57.789Z,29.10
2018-04-12T01:44:29.020Z,29.03
2018-04-12T01:47:00.200Z,29.47
2018-04-12T01:49:32.178Z,30.00
2018-04-12T01:52:04.137Z,29.23
2018-04-12T01:54:36.067Z,29.13
2018-04-12T01:57:08.102Z,29.33
2018-04-12T01:59:39.329Z,29.17
2018-04-12T02:02:10.586Z,28.60
2018-04-12T02:04:41.799Z,28.57
2018-04-12T02:07:13.500Z,29.90
2018-04-12T02:09:45.020Z,28.13
2018-04-12T02:12:16.241Z,29.27
2018-04-12T02:14:48.272Z,28.77
2018-04-12T02:17:19.541Z,30.53
2018-04-12T02:19:51.486Z,28.73
2018-04-12T02:22:22.697Z,29.70
2018-04-12T02:24:53.886Z,29.60
2018-04-12T02:27:25.814Z,28.00
2018-04-12T02:29:57.237Z,29.60
2018-04-12T02:32:28.412Z,28.10
2018-04-12T02:35:00.695Z,28.87
2018-04-12T02:37:31.926Z,30.00
2018-04-12T02:40:03.137Z,30.13
2018-04-12T02:42:34.857Z,29.67
2018-04-12T02:45:07.568Z,29.57
2018-04-12T02:47:38.777Z,29.57
2018-04-12T02:50:10.034Z,29.63
2018-04-12T02:52:42.184Z,28.40
2018-04-12T02:55:14.166Z,27.93
2018-04-12T02:57:45.472Z,28.87
2018-04-12T03:00:16.719Z,29.37
2018-04-12T03:02:47.888Z,29.50
2018-04-12T03:05:20.070Z,29.63
2018-04-12T03:07:51.261Z,29.67
2018-04-12T03:10:22.522Z,30.50
2018-04-12T03:12:53.738Z,28.07
2018-04-12T03:15:24.962Z,30.13
2018-04-12T03:17:56.223Z,29.60
2018-04-12T03:20:27.608Z,30.30
2018-04-12T03:22:59.545Z,29.60
2018-04-12T03:25:30.958Z,29.33
2018-04-12T03:28:02.234Z,31.13
2018-04-12T03:30:33.630Z,29.10
2018-04-12T03:33:04.841Z,29.40
2018-04-12T03:35:36.841Z,30.93
2018-04-12T03:38:08.111Z,30.57
2018-04-12T03:40:39.288Z,32.13
2018-04-12T03:43:10.495Z,30.63
2018-04-12T03:45:41.734Z,31.43
2018-04-12T03:48:12.958Z,30.90
2018-04-12T03:50:44.196Z,28.97
2018-04-12T03:53:16.470Z,31.80
2018-04-12T03:55:47.715Z,32.43
2018-04-12T03:58:19.911Z,33.00
2018-04-12T04:00:51.105Z,31.83
2018-04-12T04:03:23.057Z,31.67
2018-04-12T04:05:54.238Z,32.50
2018-04-12T04:08:26.484Z,31.60
2018-04-12T04:10:57.574Z,32.50
2018-04-12T04:13:28.846Z,31.37
2018-04-12T04:16:23.178Z,30.83
2018-04-12T04:19:06.789Z,31.70
2018-04-12T04:21:38.711Z,30.90
2018-04-12T04:24:09.942Z,31.17
2018-04-12T04:26:41.203Z,31.60
2018-04-12T04:29:12.419Z,30.93
2018-04-12T04:31:43.600Z,30.77
2018-04-12T04:34:14.829Z,30.73
2018-04-12T04:36:46.206Z,32.33
2018-04-12T04:39:17.728Z,31.17
2018-04-12T04:41:49.694Z,30.70
2018-04-12T04:44:20.897Z,31.23
2018-04-12T04:46:52.088Z,31.37
2018-04-12T04:49:23.526Z,31.37
2018-04-12T04:51:55.498Z,32.63
2018-04-12T04:54:26.796Z,31.23
2018-04-12T04:56:58.045Z,30.30
2018-04-12T04:59:29.304Z,32.37
2018-04-12T05:02:00.526Z,30.90
2018-04-12T05:04:31.722Z,31.87
2018-04-12T05:07:03.128Z,31.93
2018-04-12T05:09:34.377Z,31.07
2018-04-12T05:12:05.623Z,30.53
2018-04-12T05:14:36.883Z,30.90
2018-04-12T05:17:08.057Z,31.63
2018-04-12T05:19:40.086Z,30.50
2018-04-12T05:22:11.281Z,31.20
2018-04-12T05:24:43.264Z,29.77
2018-04-12T05:27:14.473Z,30.10
2018-04-12T05:29:45.674Z,32.13
2018-04-12T05:32:16.934Z,30.97
2018-04-12T05:34:48.164Z,31.03
2018-04-12T05:37:19.411Z,31.70
2018-04-12T05:39:50.663Z,32.00
2018-04-12T05:42:21.910Z,29.63
2018-04-12T05:44:53.139Z,29.77
2018-04-12T05:47:24.575Z,31.10
2018-04-12T05:49:55.766Z,31.13
2018-04-12T05:52:27.726Z,30.40
2018-04-12T05:54:58.903Z,29.53
2018-04-12T05:57:30.146Z,30.60
2018-04-12T06:00:02.732Z,29.57
2018-04-12T06:02:33.957Z,28.83
2018-04-12T06:05:05.893Z,28.97
2018-04-12T06:07:37.384Z,29.00
2018-04-12T06:10:08.594Z,28.77
2018-04-12T06:12:39.807Z,26.70
2018-04-12T06:15:11.010Z,27.23
2018-04-12T06:17:42.967Z,28.27
2018-04-12T06:20:15.096Z,27.47
2018-04-12T06:22:46.377Z,28.30
2018-04-12T06:25:18.387Z,28.20
2018-04-12T06:27:49.628Z,28.57
2018-04-12T06:30:20.783Z,26.40
2018-04-12T06:32:52.018Z,25.87
2018-04-12T06:35:23.270Z,26.43
2018-04-12T06:37:54.690Z,26.27
2018-04-12T06:40:25.934Z,27.00
2018-04-12T06:42:57.148Z,25.03
2018-04-12T06:45:28.625Z,26.40
2018-04-12T06:47:59.809Z,25.40
2018-04-12T06:50:31.014Z,25.87
2018-04-12T06:53:02.296Z,25.07
2018-04-12T06:55:33.822Z,24.77
2018-04-12T06:58:05.343Z,26.60
2018-04-12T07:00:36.618Z,24.40
2018-04-12T07:03:08.159Z,25.27
2018-04-12T07:05:39.497Z,25.30
2018-04-12T07:08:10.730Z,24.53
2018-04-12T07:10:42.200Z,23.77
2018-04-12T07:13:13.762Z,23.97
2018-04-12T07:15:45.757Z,23.83
2018-04-12T07:18:17.732Z,23.80
2018-04-12T07:20:49.763Z,23.17
2018-04-12T07:23:21.012Z,24.03
2018-04-12T07:25:52.223Z,23.50
2018-04-12T07:28:23.393Z,23.30
2018-04-12T07:30:54.605Z,23.33
2018-04-12T07:33:25.820Z,23.37
2018-04-12T07:35:57.865Z,22.40
2018-04-12T07:38:30.087Z,22.10
2018-04-12T07:41:01.339Z,22.33
2018-04-12T07:43:32.558Z,22.40
2018-04-12T07:46:03.909Z,21.87
2018-04-12T07:48:35.418Z,22.40
2018-04-12T07:51:08.107Z,21.23
2018-04-12T07:53:40.089Z,21.00
2018-04-12T07:56:11.316Z,20.57
2018-04-12T07:58:43.262Z,21.87
2018-04-12T08:01:14.580Z,21.03
2018-04-12T08:03:45.826Z,21.33
2018-04-12T08:06:17.504Z,20.83
2018-04-12T08:08:48.757Z,21.40
2018-04-12T08:11:19.970Z,21.83
2018-04-12T08:13:51.236Z,20.13
2018-04-12T08:16:22.726Z,20.10
2018-04-12T08:18:53.987Z,21.83
2018-04-12T08:21:25.329Z,22.73
2018-04-12T08:23:56.583Z,20.97
2018-04-12T08:26:27.790Z,20.27
2018-04-12T08:28:59.764Z,21.20
2018-04-12T08:31:31.072Z,20.10
2018-04-12T08:34:02.562Z,20.67
2018-04-12T08:36:35.062Z,20.93
2018-04-12T08:39:06.447Z,19.37
2018-04-12T08:41:37.742Z,20.07
2018-04-12T08:44:08.961Z,20.40
2018-04-12T08:46:41.062Z,18.60
2018-04-12T08:49:12.304Z,19.93
2018-04-12T08:51:43.516Z,20.27
2018-04-12T08:54:15.501Z,18.83
2018-04-12T08:56:46.710Z,19.47
2018-04-12T08:59:18.695Z,19.27
2018-04-12T09:01:50.038Z,18.03
2018-04-12T09:04:21.265Z,19.87
2018-04-12T09:06:53.231Z,18.67
2018-04-12T09:09:25.242Z,18.40
2018-04-12T09:11:56.464Z,18.83
2018-04-12T09:14:27.702Z,18.70
2018-04-12T09:16:59.187Z,17.00
2018-04-12T09:19:30.508Z,18.80
2018-04-12T09:22:01.750Z,19.37
2018-04-12T09:24:33.018Z,17.83
2018-04-12T09:27:04.242Z,18.83
2018-04-12T09:29:35.558Z,17.33
2018-04-12T09:32:06.803Z,19.40
2018-04-12T09:34:38.029Z,17.93
2018-04-12T09:37:09.308Z,19.07
2018-04-12T09:39:41.298Z,18.10
2018-04-12T09:42:13.423Z,17.90
2018-04-12T09:44:45.386Z,18.90
2018-04-12T09:47:17.290Z,17.53
2018-04-12T09:49:48.821Z,17.93
2018-04-12T09:52:20.038Z,18.50
2018-04-12T09:54:52.038Z,18.60
2018-04-12T09:57:23.322Z,17.57
2018-04-12T09:59:54.667Z,18.03
2018-04-12T10:02:28.835Z,17.93
2018-04-12T10:05:00.716Z,17.33
2018-04-12T10:07:38.280Z,17.63
2018-04-12T10:10:09.572Z,17.20
2018-04-12T10:12:42.335Z,16.20
2018-04-12T10:15:13.518Z,17.80
2018-04-12T10:17:45.672Z,16.20
2018-04-12T10:20:17.118Z,18.27
2018-04-12T10:22:48.454Z,16.07
2018-04-12T10:25:20.442Z,16.30
2018-04-12T10:27:52.482Z,15.53
2018-04-12T10:30:23.830Z,16.10
2018-04-12T10:32:55.019Z,17.10
2018-04-12T10:35:27.169Z,16.57
2018-04-12T10:37:59.132Z,16.93
2018-04-12T10:40:31.160Z,16.77
2018-04-12T10:43:02.451Z,16.47
2018-04-12T10:45:33.794Z,15.93
2018-04-12T10:48:05.299Z,15.87
2018-04-12T10:50:36.608Z,14.73
2018-04-12T10:53:07.934Z,15.90
2018-04-12T10:55:39.218Z,15.60
2018-04-12T10:58:10.381Z,15.60
2018-04-12T11:00:42.457Z,16.90
2018-04-12T11:03:13.814Z,15.70
2018-04-12T11:05:45.022Z,16.50
2018-04-12T11:08:16.271Z,15.83
2018-04-12T11:10:47.494Z,15.53
2018-04-12T11:13:18.710Z,16.70
2018-04-12T11:15:50.198Z,15.77
2018-04-12T11:18:21.475Z,15.23
2018-04-12T11:20:52.972Z,15.27
2018-04-12T11:23:24.205Z,16.43
2018-04-12T11:25:55.492Z,16.93
2018-04-12T11:28:26.722Z,15.87
2018-04-12T11:30:58.902Z,14.50
2018-04-12T11:33:30.460Z,14.43
2018-04-12T11:36:01.642Z,14.70
2018-04-12T11:38:33.651Z,13.93
2018-04-12T11:41:04.875Z,13.73
2018-04-12T11:43:36.150Z,13.17
2018-04-12T11:46:07.374Z,12.97
2018-04-12T11:48:38.554Z,11.77
2018-04-12T11:51:10.602Z,10.17
2018-04-12T11:53:41.832Z,10.00
2018-04-12T11:56:13.049Z,8.40
2018-04-12T11:58:44.317Z,7.57
2018-04-12T12:01:15.567Z,7.07
2018-04-12T12:03:46.842Z,8.73
2018-04-12T12:06:19.080Z,9.27
2018-04-12T12:08:50.336Z,8.40
2018-04-12T12:11:22.444Z,7.80
2018-04-12T12:13:54.403Z,7.70
2018-04-12T12:16:26.387Z,8.13
2018-04-12T12:18:57.606Z,7.73
2018-04-12T12:21:29.621Z,7.50
2018-04-12T12:24:01.514Z,7.13
2018-04-12T12:26:37.317Z,7.43
2018-04-12T12:29:09.344Z,6.87
2018-04-12T12:31:42.464Z,7.60
2018-04-12T12:34:13.892Z,8.17
2018-04-12T12:36:46.202Z,7.27
2018-04-12T12:39:18.375Z,7.30
2018-04-12T12:41:49.639Z,8.17
2018-04-12T12:44:22.165Z,8.47
2018-04-12T12:46:53.583Z,7.57
2018-04-12T12:49:24.800Z,8.03
2018-04-12T12:51:56.003Z,7.47
2018-04-12T12:54:27.198Z,7.60
2018-04-12T12:56:58.443Z,7.50
2018-04-12T12:59:29.690Z,8.00
2018-04-12T13:02:01.750Z,8.00
2018-04-12T13:04:34.813Z,8.10
2018-04-12T13:07:06.015Z,8.33
2018-04-12T13:09:37.980Z,7.90
2018-04-12T13:12:09.280Z,7.83
2018-04-12T13:14:40.527Z,10.50
2018-04-12T13:17:11.839Z,9.60
2018-04-12T13:19:43.045Z,8.40
2018-04-12T13:22:15.356Z,7.80
2018-04-12T13:24:46.616Z,8.27
2018-04-12T13:27:17.838Z,8.07
2018-04-12T13:29:49.177Z,8.17
2018-04-12T13:32:20.594Z,8.73
2018-04-12T13:34:52.567Z,8.57
2018-04-12T13:37:23.847Z,8.63
2018-04-12T13:39:55.083Z,9.33
2018-04-12T13:42:26.413Z,8.27
2018-04-12T13:44:57.659Z,8.07
2018-04-12T13:47:29.135Z,8.77
2018-04-12T13:50:00.401Z,7.90
2018-04-12T13:52:44.791Z,7.90
2018-04-12T13:55:16.211Z,7.70
2018-04-12T13:57:47.415Z,7.90
2018-04-12T14:00:19.820Z,8.13
2018-04-12T14:02:51.371Z,8.10
2018-04-12T14:05:22.718Z,8.07
2018-04-12T14:07:54.177Z,7.67
2018-04-12T14:10:25.522Z,8.10
2018-04-12T14:12:56.760Z,8.33
2018-04-12T14:15:27.955Z,8.90
2018-04-12T14:17:59.229Z,8.50
2018-04-12T14:20:30.616Z,12.77
2018-04-12T14:23:01.838Z,8.60
2018-04-12T14:25:33.147Z,9.23
2018-04-12T14:28:04.393Z,8.37
2018-04-12T14:30:35.648Z,8.70
2018-04-12T14:33:06.892Z,8.10
2018-04-12T14:35:38.086Z,8.57
2018-04-12T14:38:10.394Z,8.93
2018-04-12T14:40:41.561Z,8.77
2018-04-12T14:43:12.784Z,8.67
2018-04-12T14:45:43.971Z,10.30
2018-04-12T14:48:15.227Z,11.80
2018-04-12T14:50:47.300Z,12.47
2018-04-12T14:53:19.297Z,9.70
2018-04-12T14:55:50.545Z,12.23
2018-04-12T14:58:21.988Z,11.83
2018-04-12T15:00:53.259Z,11.60
2018-04-12T15:03:24.466Z,11.40
2018-04-12T15:05:56.458Z,11.90
2018-04-12T15:08:27.670Z,12.10
2018-04-12T15:10:58.901Z,11.33
2018-04-12T15:13:30.696Z,12.77
2018-04-12T15:16:01.910Z,11.97
2018-04-12T15:18:33.110Z,13.00
2018-04-12T15:21:04.376Z,12.37
2018-04-12T15:23:35.621Z,12.40
2018-04-12T15:26:08.483Z,12.57
2018-04-12T15:28:40.543Z,12.40
2018-04-12T15:31:11.791Z,13.07
2018-04-12T15:33:43.020Z,12.30
2018-04-12T15:36:14.473Z,13.40
2018-04-12T15:38:45.810Z,13.30
2018-04-12T15:41:17.051Z,13.17
2018-04-12T15:43:48.508Z,13.20
2018-04-12T15:46:19.758Z,13.47
2018-04-12T15:48:51.206Z,13.33
2018-04-12T15:51:22.395Z,15.87
2018-04-12T15:53:54.358Z,15.10
2018-04-12T15:56:25.632Z,16.00
2018-04-12T15:58:56.883Z,15.87
2018-04-12T16:01:28.143Z,15.50
2018-04-12T16:03:59.376Z,17.47
2018-04-12T16:06:30.675Z,17.87
2018-04-12T16:09:01.928Z,17.40
2018-04-12T16:11:33.306Z,17.40
2018-04-12T16:14:04.529Z,18.47
2018-04-12T16:16:35.812Z,17.00
2018-04-12T16:19:07.010Z,18.30
2018-04-12T16:21:38.958Z,17.37
2018-04-12T16:24:10.579Z,17.77
2018-04-12T16:26:41.904Z,17.60
2018-04-12T16:29:13.145Z,18.57
2018-04-12T16:31:44.338Z,18.43
2018-04-12T16:34:16.573Z,20.30
2018-04-12T16:36:47.777Z,20.83
2018-04-12T16:39:19.008Z,19.53
2018-04-12T16:41:50.227Z,19.77
2018-04-12T16:44:21.461Z,19.73
2018-04-12T16:46:52.790Z,20.90
2018-04-12T16:49:24.024Z,21.00
2018-04-12T16:51:55.287Z,20.77
2018-04-12T16:54:26.543Z,20.50
2018-04-12T16:56:57.770Z,20.60
2018-04-12T16:59:28.995Z,17.90
2018-04-12T17:02:01.057Z,19.07
2018-04-12T17:04:32.319Z,18.60
2018-04-12T17:07:03.693Z,18.50
2018-04-12T17:09:34.900Z,19.07
2018-04-12T17:12:06.089Z,19.23
2018-04-12T17:14:37.359Z,19.20
2018-04-12T17:17:09.300Z,18.73
2018-04-12T17:19:41.327Z,18.53
2018-04-12T17:22:12.563Z,19.23
2018-04-12T17:24:44.628Z,19.87
2018-04-12T17:27:15.858Z,19.67
2018-04-12T17:29:47.301Z,19.27
2018-04-12T17:32:18.477Z,20.50
2018-04-12T17:34:49.802Z,20.93
2018-04-12T17:37:21.047Z,18.90
2018-04-12T17:39:52.248Z,20.40
2018-04-12T17:42:24.192Z,19.47
2018-04-12T17:44:55.383Z,19.90
2018-04-12T17:47:26.659Z,20.13
2018-04-12T17:49:57.877Z,20.33
2018-04-12T17:52:29.421Z,20.40
2018-04-12T17:55:00.580Z,20.70
2018-04-12T17:57:31.801Z,21.23
2018-04-12T18:00:03.041Z,21.33
2018-04-12T18:02:34.610Z,22.10
2018-04-12T18:05:05.769Z,20.37
2018-04-12T18:07:37.134Z,21.80
2018-04-12T18:10:08.347Z,21.37
2018-04-12T18:12:39.590Z,24.13
2018-04-12T18:15:10.789Z,23.13
2018-04-12T18:17:42.714Z,22.33
2018-04-12T18:20:13.887Z,24.37
2018-04-12T18:22:45.151Z,22.93
2018-04-12T18:25:16.447Z,22.13
2018-04-12T18:27:47.671Z,25.03
2018-04-12T18:30:19.116Z,22.17
2018-04-12T18:32:50.325Z,23.17
2018-04-12T18:35:22.255Z,24.47
2018-04-12T18:37:54.287Z,22.50
2018-04-12T18:40:25.662Z,22.43
2018-04-12T18:42:56.876Z,23.17
2018-04-12T18:45:28.116Z,23.37
2018-04-12T18:47:59.379Z,23.07
2018-04-12T18:50:30.601Z,23.70
2018-04-12T18:53:01.818Z,23.77
2018-04-12T18:55:33.051Z,25.80
2018-04-12T18:58:05.007Z,24.47
2018-04-12T19:00:36.191Z,24.60
2018-04-12T19:03:07.485Z,23.50
2018-04-12T19:05:38.942Z,24.40
2018-04-12T19:08:10.947Z,25.07
2018-04-12T19:10:42.166Z,25.23
2018-04-12T19:13:13.334Z,24.80
2018-04-12T19:15:45.040Z,23.97
2018-04-12T19:18:16.292Z,24.90
2018-04-12T19:20:48.307Z,24.50
2018-04-12T19:23:19.506Z,24.73
2018-04-12T19:25:50.737Z,25.03
2018-04-12T19:28:22.132Z,23.53
2018-04-12T19:30:53.382Z,25.37
2018-04-12T19:33:24.622Z,24.47
2018-04-12T19:35:55.888Z,25.07
2018-04-12T19:38:27.131Z,24.40
2018-04-12T19:40:58.321Z,25.13
2018-04-12T19:43:31.049Z,24.40
2018-04-12T19:46:02.258Z,25.00
2018-04-12T19:48:34.304Z,25.27
2018-04-12T19:51:05.478Z,24.87
2018-04-12T19:53:36.670Z,26.70
2018-04-12T19:56:07.911Z,25.97
2018-04-12T19:58:39.127Z,26.47
2018-04-12T20:01:10.307Z,26.60
2018-04-12T20:03:41.705Z,26.87
2018-04-12T20:06:12.879Z,27.57
2018-04-12T20:08:44.301Z,26.07
2018-04-12T20:11:15.495Z,28.13
2018-04-12T20:13:46.769Z,26.90
2018-04-12T20:16:18.704Z,28.17
2018-04-12T20:18:49.893Z,28.20
2018-04-12T20:21:21.068Z,28.30
2018-04-12T20:23:52.353Z,28.47
2018-04-12T20:26:24.313Z,28.43
2018-04-12T20:28:55.576Z,28.40
2018-04-12T20:31:26.801Z,30.53
2018-04-12T20:33:58.009Z,29.97
2018-04-12T20:36:29.227Z,31.27
2018-04-12T20:39:00.429Z,30.97
2018-04-12T20:41:32.393Z,29.53
2018-04-12T20:44:04.312Z,30.23
2018-04-12T20:46:35.835Z,30.17
2018-04-12T20:49:07.062Z,30.93
2018-04-12T20:51:39.347Z,31.10
2018-04-12T20:54:10.535Z,30.80
2018-04-12T20:56:41.754Z,32.50
2018-04-12T20:59:12.917Z,31.03
2018-04-12T21:01:44.124Z,31.70
2018-04-12T21:04:15.347Z,31.17
2018-04-12T21:06:47.352Z,32.87
2018-04-12T21:09:18.515Z,32.53
2018-04-12T21:11:49.733Z,33.47
2018-04-12T21:14:21.245Z,32.03
2018-04-12T21:16:53.143Z,32.73
2018-04-12T21:19:24.331Z,32.13
2018-04-12T21:21:55.533Z,33.13
2018-04-12T21:24:26.783Z,34.17
2018-04-12T21:26:58.019Z,33.57
2018-04-12T21:29:29.297Z,33.27
2018-04-12T21:32:00.524Z,33.80
2018-04-12T21:34:31.722Z,33.37
2018-04-12T21:37:03.146Z,32.60
2018-04-12T21:39:35.091Z,33.77
2018-04-12T21:42:06.495Z,32.90
2018-04-12T21:44:37.687Z,32.77
2018-04-12T21:47:09.800Z,33.50
2018-04-12T21:49:41.005Z,33.83
2018-04-12T21:52:13.327Z,32.97
2018-04-12T21:54:44.542Z,33.77
2018-04-12T21:57:15.775Z,34.07
2018-04-12T21:59:47.002Z,34.37
2018-04-12T22:02:18.970Z,35.33
2018-04-12T22:04:50.905Z,34.10
2018-04-12T22:07:22.131Z,34.37
2018-04-12T22:09:53.480Z,34.70
2018-04-12T22:12:24.700Z,34.83
2018-04-12T22:14:55.915Z,34.50
2018-04-12T22:17:27.901Z,36.47
2018-04-12T22:19:59.111Z,34.70
2018-04-12T22:22:30.344Z,36.00
2018-04-12T22:25:01.519Z,36.23
2018-04-12T22:27:32.742Z,35.60
2018-04-12T22:30:03.929Z,37.33
2018-04-12T22:32:35.171Z,37.47
2018-04-12T22:35:06.384Z,36.70
2018-04-12T22:37:38.342Z,37.87
2018-04-12T22:40:09.562Z,37.27
2018-04-12T22:42:40.828Z,36.33
2018-04-12T22:45:12.034Z,37.27
2018-04-12T22:47:43.251Z,38.03
2018-04-12T22:50:14.487Z,37.00
2018-04-12T22:52:45.732Z,39.03
2018-04-12T22:55:16.926Z,36.07
2018-04-12T22:57:48.443Z,38.37
2018-04-12T23:00:19.620Z,36.97
2018-04-12T23:02:51.129Z,36.57
2018-04-12T23:05:22.307Z,36.43
2018-04-12T23:07:53.506Z,36.03
2018-04-12T23:10:24.747Z,37.27
2018-04-12T23:12:55.965Z,36.50
2018-04-12T23:15:27.125Z,38.23
2018-04-12T23:17:59.066Z,35.87
2018-04-12T23:20:30.996Z,35.57
2018-04-12T23:23:02.454Z,35.77
2018-04-12T23:25:33.595Z,37.03
2018-04-12T23:28:05.115Z,36.23
2018-04-12T23:30:36.345Z,36.63
2018-04-12T23:33:07.919Z,35.57
2018-04-12T23:35:39.091Z,36.37
2018-04-12T23:38:10.575Z,35.93
2018-04-12T23:40:42.497Z,36.30
2018-04-12T23:43:13.716Z,35.73
2018-04-12T23:45:44.922Z,37.37
2018-04-12T23:48:16.899Z,35.27
2018-04-12T23:50:48.135Z,35.97
2018-04-12T23:53:20.108Z,36.60
2018-04-12T23:55:51.295Z,34.47
2018-04-12T23:58:22.542Z,37.03
